VNT523 KRDU-KISM
Flight info
| Callsign | VNT523 |
|---|---|
| Flight time | 1h 16m |
| Altitude | 40000 |
| Route | ROZBO5 ROZBO SLITT SMPRR Q85 LPERD SNFLD3 |
| Aircraft | CL60/M-SBDE1E2E3FGHIJ1J4J5J7M3RWXYZ/LB1V1D1 |
Departure
| Time | 2026-04-17 01:04 |
|---|---|
| Airport | Raleigh-Durham International Airport (KRDU) |
Arrival
| Time | 2026-04-17 02:20 |
|---|---|
| Airport | Kissimmee Gateway Airport (KISM) |
| Time | Latitude | Longitude | Altitude | Speed | Heading |
|---|---|---|---|---|---|
| 2026-04-17 00:47 | 35.87949 | -78.78387 | 428 ft | 0 kts | 45° |
| 2026-04-17 00:57 | 35.87952 | -78.78384 | 428 ft | 2 kts | 46° |
| 2026-04-17 00:57 | 35.87973 | -78.78358 | 428 ft | 6 kts | 46° |
| 2026-04-17 00:57 | 35.88012 | -78.78307 | 427 ft | 11 kts | 46° |
| 2026-04-17 00:57 | 35.88026 | -78.78290 | 426 ft | 0 kts | 41° |
| 2026-04-17 01:00 | 35.88029 | -78.78265 | 426 ft | 9 kts | 110° |
| 2026-04-17 01:01 | 35.88028 | -78.78175 | 424 ft | 13 kts | 51° |
| 2026-04-17 01:01 | 35.88038 | -78.78062 | 422 ft | 6 kts | 117° |
| 2026-04-17 01:01 | 35.88008 | -78.78014 | 422 ft | 0 kts | 140° |
| 2026-04-17 01:01 | 35.88007 | -78.78014 | 422 ft | 0 kts | 140° |
| 2026-04-17 01:02 | 35.87988 | -78.77998 | 422 ft | 11 kts | 154° |
| 2026-04-17 01:02 | 35.87902 | -78.77954 | 419 ft | 7 kts | 192° |
| 2026-04-17 01:03 | 35.87854 | -78.78001 | 422 ft | 9 kts | 223° |
| 2026-04-17 01:03 | 35.87772 | -78.78101 | 426 ft | 42 kts | 225° |
| 2026-04-17 01:03 | 35.87309 | -78.78681 | 435 ft | 140 kts | 226° |
| 2026-04-17 01:03 | 35.86533 | -78.79661 | 1025 ft | 173 kts | 227° |
| 2026-04-17 01:04 | 35.85706 | -78.80514 | 2500 ft | 160 kts | 211° |
| 2026-04-17 01:04 | 35.84655 | -78.80959 | 3494 ft | 175 kts | 201° |
| 2026-04-17 01:04 | 35.83339 | -78.81427 | 4033 ft | 218 kts | 200° |
| 2026-04-17 01:04 | 35.81809 | -78.81977 | 4838 ft | 242 kts | 200° |
| 2026-04-17 01:05 | 35.80153 | -78.82604 | 5752 ft | 261 kts | 201° |
| 2026-04-17 01:05 | 35.78326 | -78.82976 | 6927 ft | 277 kts | 179° |
| 2026-04-17 01:05 | 35.76427 | -78.82476 | 8145 ft | 287 kts | 168° |
| 2026-04-17 01:05 | 35.74538 | -78.81710 | 9307 ft | 295 kts | 163° |
| 2026-04-17 01:06 | 35.72603 | -78.80786 | 10520 ft | 300 kts | 162° |
| 2026-04-17 01:06 | 35.70661 | -78.79854 | 11689 ft | 305 kts | 162° |
| 2026-04-17 01:06 | 35.68671 | -78.78899 | 12836 ft | 310 kts | 163° |
| 2026-04-17 01:06 | 35.66635 | -78.77924 | 13918 ft | 315 kts | 163° |
| 2026-04-17 01:07 | 35.64545 | -78.76925 | 14701 ft | 332 kts | 163° |
| 2026-04-17 01:07 | 35.62328 | -78.75869 | 15357 ft | 350 kts | 163° |
| 2026-04-17 01:07 | 35.60053 | -78.74780 | 16083 ft | 359 kts | 163° |
| 2026-04-17 01:07 | 35.57720 | -78.73662 | 17104 ft | 362 kts | 163° |
| 2026-04-17 01:08 | 35.55350 | -78.72527 | 18049 ft | 365 kts | 163° |
| 2026-04-17 01:08 | 35.52937 | -78.71371 | 18928 ft | 369 kts | 164° |
| 2026-04-17 01:08 | 35.50488 | -78.70498 | 19760 ft | 367 kts | 176° |
| 2026-04-17 01:08 | 35.47939 | -78.70119 | 20556 ft | 370 kts | 178° |
| 2026-04-17 01:09 | 35.45350 | -78.69757 | 21279 ft | 376 kts | 178° |
| 2026-04-17 01:09 | 35.42730 | -78.69386 | 22023 ft | 381 kts | 178° |
| 2026-04-17 01:09 | 35.40084 | -78.69010 | 22808 ft | 384 kts | 178° |
| 2026-04-17 01:09 | 35.37408 | -78.68631 | 23489 ft | 390 kts | 178° |
| 2026-04-17 01:10 | 35.34688 | -78.68244 | 24224 ft | 394 kts | 178° |
| 2026-04-17 01:10 | 35.31968 | -78.67857 | 24895 ft | 398 kts | 178° |
| 2026-04-17 01:10 | 35.29167 | -78.67460 | 25566 ft | 402 kts | 179° |
| 2026-04-17 01:10 | 35.26371 | -78.67062 | 26186 ft | 406 kts | 179° |
| 2026-04-17 01:11 | 35.23554 | -78.66662 | 26776 ft | 410 kts | 179° |
| 2026-04-17 01:11 | 35.20672 | -78.66252 | 27378 ft | 414 kts | 179° |
| 2026-04-17 01:11 | 35.17790 | -78.65842 | 27925 ft | 418 kts | 179° |
| 2026-04-17 01:11 | 35.14869 | -78.65427 | 28482 ft | 421 kts | 180° |
| 2026-04-17 01:12 | 35.11948 | -78.65012 | 29024 ft | 424 kts | 180° |
| 2026-04-17 01:12 | 35.09020 | -78.64596 | 29599 ft | 424 kts | 180° |
| 2026-04-17 01:12 | 35.06065 | -78.64174 | 30269 ft | 423 kts | 180° |
| 2026-04-17 01:12 | 35.03155 | -78.63758 | 31052 ft | 417 kts | 180° |
| 2026-04-17 01:13 | 35.00261 | -78.63344 | 31826 ft | 412 kts | 180° |
| 2026-04-17 01:13 | 34.97446 | -78.62942 | 32525 ft | 407 kts | 181° |
| 2026-04-17 01:13 | 34.94635 | -78.62757 | 33124 ft | 397 kts | 189° |
| 2026-04-17 01:13 | 34.91873 | -78.62948 | 33752 ft | 393 kts | 191° |
| 2026-04-17 01:14 | 34.89095 | -78.63164 | 34272 ft | 393 kts | 191° |
| 2026-04-17 01:14 | 34.86364 | -78.63374 | 34774 ft | 393 kts | 191° |
| 2026-04-17 01:14 | 34.83641 | -78.63582 | 35216 ft | 394 kts | 191° |
| 2026-04-17 01:14 | 34.80847 | -78.63796 | 35629 ft | 396 kts | 191° |
| 2026-04-17 01:15 | 34.78084 | -78.64006 | 36044 ft | 397 kts | 191° |
| 2026-04-17 01:15 | 34.75285 | -78.64218 | 36488 ft | 396 kts | 191° |
| 2026-04-17 01:15 | 34.72503 | -78.64493 | 36885 ft | 393 kts | 195° |
| 2026-04-17 01:15 | 34.69817 | -78.65178 | 37389 ft | 382 kts | 204° |
| 2026-04-17 01:16 | 34.67308 | -78.66302 | 37771 ft | 375 kts | 212° |
| 2026-04-17 01:16 | 34.65009 | -78.67822 | 38150 ft | 369 kts | 219° |
| 2026-04-17 01:16 | 34.62802 | -78.69552 | 38456 ft | 369 kts | 220° |
| 2026-04-17 01:16 | 34.60596 | -78.71288 | 38761 ft | 370 kts | 220° |
| 2026-04-17 01:17 | 34.58393 | -78.73018 | 39153 ft | 369 kts | 220° |
| 2026-04-17 01:17 | 34.56216 | -78.74727 | 39492 ft | 368 kts | 220° |
| 2026-04-17 01:17 | 34.54055 | -78.76422 | 39773 ft | 368 kts | 220° |
| 2026-04-17 01:17 | 34.51831 | -78.78166 | 40028 ft | 368 kts | 220° |
| 2026-04-17 01:18 | 34.47377 | -78.81663 | 40034 ft | 379 kts | 220° |
| 2026-04-17 01:18 | 34.42825 | -78.85300 | 40037 ft | 387 kts | 221° |
| 2026-04-17 01:19 | 34.38286 | -78.89140 | 40046 ft | 396 kts | 222° |
| 2026-04-17 01:19 | 34.33682 | -78.93027 | 40069 ft | 404 kts | 221° |
| 2026-04-17 01:20 | 34.28970 | -78.96998 | 40037 ft | 411 kts | 221° |
| 2026-04-17 01:20 | 34.24239 | -79.00977 | 40048 ft | 416 kts | 221° |
| 2026-04-17 01:21 | 34.19400 | -79.05041 | 40025 ft | 418 kts | 221° |
| 2026-04-17 01:21 | 34.14588 | -79.09074 | 40051 ft | 418 kts | 221° |
| 2026-04-17 01:22 | 34.09798 | -79.13084 | 40039 ft | 416 kts | 221° |
| 2026-04-17 01:22 | 34.05029 | -79.17072 | 40031 ft | 416 kts | 221° |
| 2026-04-17 01:23 | 34.00212 | -79.21098 | 40037 ft | 417 kts | 221° |
| 2026-04-17 01:23 | 33.95448 | -79.25075 | 40034 ft | 417 kts | 221° |
| 2026-04-17 01:24 | 33.90581 | -79.29134 | 40040 ft | 419 kts | 221° |
| 2026-04-17 01:24 | 33.85705 | -79.33193 | 40055 ft | 418 kts | 221° |
| 2026-04-17 01:25 | 33.80908 | -79.37181 | 40063 ft | 418 kts | 221° |
| 2026-04-17 01:25 | 33.76030 | -79.41231 | 40049 ft | 418 kts | 221° |
| 2026-04-17 01:26 | 33.71221 | -79.45217 | 40032 ft | 418 kts | 221° |
| 2026-04-17 01:26 | 33.66419 | -79.49194 | 40044 ft | 418 kts | 221° |
| 2026-04-17 01:27 | 33.61581 | -79.53194 | 40049 ft | 419 kts | 221° |
| 2026-04-17 01:27 | 33.56749 | -79.57183 | 40068 ft | 419 kts | 221° |
| 2026-04-17 01:28 | 33.51881 | -79.61196 | 40045 ft | 419 kts | 221° |
| 2026-04-17 01:28 | 33.47049 | -79.65175 | 40046 ft | 420 kts | 221° |
| 2026-04-17 01:29 | 33.39744 | -79.71180 | 40058 ft | 421 kts | 221° |
| 2026-04-17 01:30 | 33.34902 | -79.75153 | 40057 ft | 421 kts | 221° |
| 2026-04-17 01:30 | 33.30029 | -79.79143 | 40078 ft | 420 kts | 221° |
| 2026-04-17 01:31 | 33.25196 | -79.83096 | 40051 ft | 421 kts | 221° |
| 2026-04-17 01:31 | 33.20309 | -79.87087 | 40057 ft | 421 kts | 221° |
| 2026-04-17 01:32 | 33.15425 | -79.91073 | 40055 ft | 423 kts | 221° |
| 2026-04-17 01:32 | 33.10511 | -79.95075 | 40073 ft | 424 kts | 221° |
| 2026-04-17 01:33 | 33.05603 | -79.99067 | 40076 ft | 424 kts | 221° |
| 2026-04-17 01:33 | 33.00670 | -80.03075 | 40078 ft | 424 kts | 221° |
| 2026-04-17 01:34 | 32.95785 | -80.07036 | 40070 ft | 423 kts | 221° |
| 2026-04-17 01:34 | 32.90876 | -80.11013 | 40062 ft | 424 kts | 221° |
| 2026-04-17 01:35 | 32.85901 | -80.15037 | 40077 ft | 424 kts | 221° |
| 2026-04-17 01:35 | 32.80987 | -80.19007 | 40085 ft | 424 kts | 221° |
| 2026-04-17 01:36 | 32.76017 | -80.23019 | 40079 ft | 428 kts | 221° |
| 2026-04-17 01:36 | 32.71028 | -80.27041 | 40071 ft | 433 kts | 221° |
| 2026-04-17 01:37 | 32.65934 | -80.31141 | 40060 ft | 439 kts | 221° |
| 2026-04-17 01:37 | 32.60773 | -80.35288 | 40066 ft | 443 kts | 221° |
| 2026-04-17 01:38 | 32.55544 | -80.39253 | 40067 ft | 449 kts | 217° |
| 2026-04-17 01:38 | 32.50036 | -80.42956 | 40089 ft | 449 kts | 217° |
| 2026-04-17 01:39 | 32.44569 | -80.46636 | 40073 ft | 449 kts | 217° |
| 2026-04-17 01:39 | 32.39085 | -80.50324 | 40092 ft | 447 kts | 217° |
| 2026-04-17 01:40 | 32.33650 | -80.53976 | 40096 ft | 447 kts | 217° |
| 2026-04-17 01:40 | 32.28153 | -80.57667 | 40095 ft | 448 kts | 217° |
| 2026-04-17 01:41 | 32.22674 | -80.61343 | 40101 ft | 448 kts | 217° |
| 2026-04-17 01:41 | 32.17175 | -80.65026 | 40099 ft | 448 kts | 217° |
| 2026-04-17 01:42 | 32.11695 | -80.68694 | 40109 ft | 450 kts | 217° |
| 2026-04-17 01:42 | 32.06209 | -80.72360 | 40097 ft | 451 kts | 216° |
| 2026-04-17 01:43 | 32.00726 | -80.76019 | 40098 ft | 451 kts | 216° |
| 2026-04-17 01:43 | 31.95182 | -80.79713 | 40097 ft | 451 kts | 217° |
| 2026-04-17 01:44 | 31.89627 | -80.83409 | 40082 ft | 450 kts | 217° |
| 2026-04-17 01:44 | 31.84129 | -80.87064 | 40081 ft | 450 kts | 217° |
| 2026-04-17 01:45 | 31.78584 | -80.90745 | 40086 ft | 451 kts | 217° |
| 2026-04-17 01:45 | 31.73088 | -80.94388 | 40080 ft | 450 kts | 217° |
| 2026-04-17 01:46 | 31.67634 | -80.97997 | 40074 ft | 450 kts | 217° |
| 2026-04-17 01:46 | 31.62166 | -81.01613 | 40086 ft | 451 kts | 217° |
| 2026-04-17 01:47 | 31.56641 | -81.05180 | 40085 ft | 454 kts | 215° |
| 2026-04-17 01:47 | 31.51001 | -81.08637 | 40075 ft | 453 kts | 215° |
| 2026-04-17 01:48 | 31.45344 | -81.12101 | 40090 ft | 452 kts | 215° |
| 2026-04-17 01:48 | 31.39647 | -81.15586 | 40093 ft | 454 kts | 215° |
| 2026-04-17 01:49 | 31.34020 | -81.18964 | 40088 ft | 455 kts | 214° |
| 2026-04-17 01:49 | 31.28301 | -81.22360 | 40092 ft | 456 kts | 214° |
| 2026-04-17 01:50 | 31.22547 | -81.25656 | 40103 ft | 461 kts | 210° |
| 2026-04-17 01:50 | 31.16266 | -81.27789 | 40106 ft | 472 kts | 197° |
| 2026-04-17 01:51 | 31.09689 | -81.28249 | 40103 ft | 473 kts | 187° |
| 2026-04-17 01:51 | 31.03022 | -81.28226 | 40090 ft | 470 kts | 187° |
| 2026-04-17 01:52 | 30.96460 | -81.28210 | 40081 ft | 469 kts | 187° |
| 2026-04-17 01:52 | 30.89850 | -81.28197 | 39582 ft | 477 kts | 187° |
| 2026-04-17 01:52 | 30.86501 | -81.28191 | 39009 ft | 478 kts | 187° |
| 2026-04-17 01:53 | 30.83161 | -81.28180 | 38417 ft | 476 kts | 187° |
| 2026-04-17 01:53 | 30.79835 | -81.28171 | 37800 ft | 474 kts | 187° |
| 2026-04-17 01:53 | 30.76497 | -81.28162 | 37181 ft | 473 kts | 187° |
| 2026-04-17 01:53 | 30.73183 | -81.28153 | 36521 ft | 472 kts | 187° |
| 2026-04-17 01:54 | 30.69921 | -81.28143 | 35937 ft | 469 kts | 187° |
| 2026-04-17 01:54 | 30.66636 | -81.28136 | 35299 ft | 469 kts | 187° |
| 2026-04-17 01:54 | 30.63338 | -81.28127 | 34671 ft | 469 kts | 187° |
| 2026-04-17 01:54 | 30.60074 | -81.28101 | 34054 ft | 470 kts | 185° |
| 2026-04-17 01:55 | 30.56797 | -81.27891 | 33514 ft | 471 kts | 183° |
| 2026-04-17 01:55 | 30.53496 | -81.27634 | 33169 ft | 467 kts | 183° |
| 2026-04-17 01:55 | 30.50276 | -81.27387 | 32956 ft | 464 kts | 183° |
| 2026-04-17 01:55 | 30.47031 | -81.27142 | 32473 ft | 464 kts | 182° |
| 2026-04-17 01:56 | 30.43795 | -81.26895 | 32119 ft | 461 kts | 182° |
| 2026-04-17 01:56 | 30.40569 | -81.26650 | 31692 ft | 458 kts | 182° |
| 2026-04-17 01:56 | 30.37401 | -81.26411 | 31322 ft | 458 kts | 182° |
| 2026-04-17 01:56 | 30.34164 | -81.26170 | 30913 ft | 467 kts | 182° |
| 2026-04-17 01:57 | 30.30872 | -81.25925 | 30508 ft | 475 kts | 182° |
| 2026-04-17 01:57 | 30.27525 | -81.25675 | 30092 ft | 477 kts | 182° |
| 2026-04-17 01:57 | 30.24196 | -81.25424 | 29686 ft | 475 kts | 181° |
| 2026-04-17 01:57 | 30.20912 | -81.25176 | 29281 ft | 471 kts | 181° |
| 2026-04-17 01:58 | 30.17631 | -81.24928 | 28878 ft | 468 kts | 181° |
| 2026-04-17 01:58 | 30.14346 | -81.24681 | 28461 ft | 465 kts | 181° |
| 2026-04-17 01:58 | 30.11135 | -81.24440 | 28094 ft | 462 kts | 181° |
| 2026-04-17 01:58 | 30.07925 | -81.24200 | 27685 ft | 460 kts | 181° |
| 2026-04-17 01:59 | 30.04686 | -81.23957 | 27293 ft | 458 kts | 180° |
| 2026-04-17 01:59 | 30.01532 | -81.23721 | 26913 ft | 454 kts | 180° |
| 2026-04-17 01:59 | 29.98363 | -81.23485 | 26524 ft | 452 kts | 180° |
| 2026-04-17 01:59 | 29.95225 | -81.23251 | 26128 ft | 449 kts | 180° |
| 2026-04-17 02:00 | 29.92069 | -81.23016 | 25746 ft | 448 kts | 180° |
| 2026-04-17 02:00 | 29.88987 | -81.22787 | 25371 ft | 445 kts | 180° |
| 2026-04-17 02:00 | 29.85851 | -81.22554 | 24968 ft | 442 kts | 180° |
| 2026-04-17 02:00 | 29.82770 | -81.22325 | 24596 ft | 439 kts | 180° |
| 2026-04-17 02:01 | 29.79733 | -81.22099 | 24212 ft | 437 kts | 180° |
| 2026-04-17 02:01 | 29.76658 | -81.21872 | 23823 ft | 436 kts | 179° |
| 2026-04-17 02:01 | 29.73655 | -81.21649 | 23460 ft | 433 kts | 179° |
| 2026-04-17 02:01 | 29.70623 | -81.21423 | 23109 ft | 432 kts | 179° |
| 2026-04-17 02:02 | 29.67621 | -81.21171 | 22702 ft | 430 kts | 178° |
| 2026-04-17 02:02 | 29.64604 | -81.20911 | 22156 ft | 429 kts | 178° |
| 2026-04-17 02:02 | 29.61619 | -81.20654 | 21504 ft | 424 kts | 178° |
| 2026-04-17 02:02 | 29.58689 | -81.20403 | 21025 ft | 417 kts | 178° |
| 2026-04-17 02:03 | 29.55794 | -81.20154 | 20535 ft | 415 kts | 178° |
| 2026-04-17 02:03 | 29.52881 | -81.19904 | 20052 ft | 414 kts | 178° |
| 2026-04-17 02:03 | 29.50034 | -81.19661 | 19557 ft | 410 kts | 178° |
| 2026-04-17 02:03 | 29.47171 | -81.19416 | 18970 ft | 409 kts | 178° |
| 2026-04-17 02:04 | 29.44346 | -81.19174 | 18412 ft | 401 kts | 178° |
| 2026-04-17 02:04 | 29.41541 | -81.18935 | 17942 ft | 399 kts | 177° |
| 2026-04-17 02:04 | 29.38772 | -81.18698 | 17466 ft | 397 kts | 178° |
| 2026-04-17 02:04 | 29.36014 | -81.18462 | 16994 ft | 394 kts | 178° |
| 2026-04-17 02:05 | 29.33279 | -81.18230 | 16519 ft | 392 kts | 177° |
| 2026-04-17 02:05 | 29.30538 | -81.17996 | 16052 ft | 390 kts | 177° |
| 2026-04-17 02:05 | 29.27834 | -81.17762 | 15582 ft | 388 kts | 177° |
| 2026-04-17 02:05 | 29.25154 | -81.17526 | 15125 ft | 387 kts | 176° |
| 2026-04-17 02:06 | 29.22469 | -81.17289 | 14661 ft | 384 kts | 176° |
| 2026-04-17 02:06 | 29.19799 | -81.17042 | 14205 ft | 382 kts | 175° |
| 2026-04-17 02:06 | 29.17162 | -81.16740 | 13800 ft | 376 kts | 182° |
| 2026-04-17 02:06 | 29.14648 | -81.17394 | 13702 ft | 371 kts | 205° |
| 2026-04-17 02:07 | 29.12301 | -81.18664 | 13606 ft | 373 kts | 207° |
| 2026-04-17 02:07 | 29.09931 | -81.19965 | 13528 ft | 374 kts | 207° |
| 2026-04-17 02:07 | 29.07568 | -81.21252 | 13454 ft | 375 kts | 207° |
| 2026-04-17 02:07 | 29.05195 | -81.22530 | 13383 ft | 376 kts | 206° |
| 2026-04-17 02:08 | 29.02823 | -81.23794 | 13310 ft | 376 kts | 206° |
| 2026-04-17 02:08 | 29.00435 | -81.25053 | 13235 ft | 375 kts | 206° |
| 2026-04-17 02:08 | 28.98030 | -81.26299 | 13164 ft | 375 kts | 205° |
| 2026-04-17 02:08 | 28.95647 | -81.27499 | 12861 ft | 376 kts | 205° |
| 2026-04-17 02:09 | 28.93273 | -81.28688 | 12402 ft | 365 kts | 205° |
| 2026-04-17 02:09 | 28.90975 | -81.29838 | 11934 ft | 355 kts | 205° |
| 2026-04-17 02:09 | 28.88728 | -81.30961 | 11468 ft | 347 kts | 205° |
| 2026-04-17 02:09 | 28.86539 | -81.32053 | 11016 ft | 340 kts | 205° |
| 2026-04-17 02:10 | 28.84390 | -81.33125 | 10567 ft | 333 kts | 205° |
| 2026-04-17 02:10 | 28.82272 | -81.34180 | 10127 ft | 327 kts | 205° |
| 2026-04-17 02:10 | 28.80193 | -81.35215 | 9693 ft | 322 kts | 204° |
| 2026-04-17 02:10 | 28.78134 | -81.36239 | 9266 ft | 317 kts | 204° |
| 2026-04-17 02:11 | 28.76142 | -81.37228 | 8856 ft | 312 kts | 204° |
| 2026-04-17 02:11 | 28.74167 | -81.38209 | 8446 ft | 307 kts | 204° |
| 2026-04-17 02:11 | 28.72205 | -81.39182 | 8036 ft | 303 kts | 204° |
| 2026-04-17 02:11 | 28.70289 | -81.40132 | 7626 ft | 298 kts | 204° |
| 2026-04-17 02:12 | 28.68406 | -81.41065 | 7259 ft | 292 kts | 204° |
| 2026-04-17 02:12 | 28.66536 | -81.41991 | 6860 ft | 288 kts | 204° |
| 2026-04-17 02:12 | 28.64707 | -81.42896 | 6487 ft | 284 kts | 203° |
| 2026-04-17 02:12 | 28.62921 | -81.43778 | 6113 ft | 282 kts | 203° |
| 2026-04-17 02:13 | 28.61118 | -81.44669 | 5732 ft | 281 kts | 203° |
| 2026-04-17 02:13 | 28.59314 | -81.45561 | 5363 ft | 279 kts | 203° |
| 2026-04-17 02:13 | 28.57535 | -81.46439 | 4992 ft | 277 kts | 203° |
| 2026-04-17 02:13 | 28.55780 | -81.47304 | 4632 ft | 276 kts | 203° |
| 2026-04-17 02:14 | 28.54013 | -81.48177 | 4263 ft | 275 kts | 203° |
| 2026-04-17 02:14 | 28.52258 | -81.49042 | 3895 ft | 273 kts | 203° |
| 2026-04-17 02:14 | 28.50526 | -81.49895 | 3540 ft | 271 kts | 203° |
| 2026-04-17 02:14 | 28.48803 | -81.50744 | 3188 ft | 266 kts | 203° |
| 2026-04-17 02:15 | 28.47114 | -81.51575 | 2834 ft | 261 kts | 202° |
| 2026-04-17 02:15 | 28.45450 | -81.52395 | 2488 ft | 257 kts | 201° |
| 2026-04-17 02:15 | 28.43759 | -81.52996 | 2127 ft | 250 kts | 184° |
| 2026-04-17 02:15 | 28.42112 | -81.52789 | 1999 ft | 231 kts | 159° |
| 2026-04-17 02:16 | 28.40737 | -81.52014 | 1980 ft | 206 kts | 147° |
| 2026-04-17 02:16 | 28.39610 | -81.51219 | 1990 ft | 176 kts | 146° |
| 2026-04-17 02:16 | 28.38611 | -81.50513 | 1978 ft | 163 kts | 146° |
| 2026-04-17 02:16 | 28.37655 | -81.49837 | 1882 ft | 159 kts | 146° |
| 2026-04-17 02:17 | 28.36720 | -81.49178 | 1678 ft | 155 kts | 146° |
| 2026-04-17 02:17 | 28.35871 | -81.48581 | 1512 ft | 135 kts | 146° |
| 2026-04-17 02:17 | 28.35105 | -81.48041 | 1341 ft | 124 kts | 145° |
| 2026-04-17 02:17 | 28.34376 | -81.47526 | 1166 ft | 120 kts | 145° |
| 2026-04-17 02:18 | 28.33669 | -81.47026 | 1016 ft | 119 kts | 145° |
| 2026-04-17 02:18 | 28.32967 | -81.46531 | 860 ft | 118 kts | 145° |
| 2026-04-17 02:18 | 28.32266 | -81.46037 | 708 ft | 118 kts | 146° |
| 2026-04-17 02:18 | 28.31564 | -81.45538 | 567 ft | 117 kts | 146° |
| 2026-04-17 02:19 | 28.30864 | -81.45052 | 410 ft | 118 kts | 146° |
| 2026-04-17 02:19 | 28.30162 | -81.44563 | 230 ft | 118 kts | 145° |
| 2026-04-17 02:19 | 28.29470 | -81.44061 | 90 ft | 115 kts | 146° |
| 2026-04-17 02:19 | 28.28894 | -81.43652 | 84 ft | 68 kts | 145° |
| 2026-04-17 02:20 | 28.28622 | -81.43466 | 83 ft | 14 kts | 147° |
| 2026-04-17 02:20 | 28.28610 | -81.43373 | 81 ft | 12 kts | 52° |
| 2026-04-17 02:20 | 28.28697 | -81.43388 | 81 ft | 16 kts | 329° |
| 2026-04-17 02:20 | 28.28808 | -81.43465 | 83 ft | 20 kts | 330° |
| 2026-04-17 02:21 | 28.28921 | -81.43546 | 83 ft | 20 kts | 328° |
| 2026-04-17 02:21 | 28.29054 | -81.43640 | 83 ft | 24 kts | 326° |
| 2026-04-17 02:21 | 28.29171 | -81.43721 | 83 ft | 12 kts | 334° |
| 2026-04-17 02:21 | 28.29215 | -81.43678 | 83 ft | 10 kts | 60° |
| 2026-04-17 02:22 | 28.29270 | -81.43643 | 83 ft | 0 kts | 7° |